createdAt,value
2023-03-12T15:24:43.999Z,90.37
2023-03-12T15:25:43.992Z,90.06
2023-03-12T15:26:44.058Z,90.06
2023-03-12T15:27:43.937Z,90.16
2023-03-12T15:28:43.967Z,90.16
2023-03-12T15:29:43.889Z,90.16
2023-03-12T15:30:43.937Z,90.26
2023-03-12T15:31:44.010Z,89.95
2023-03-12T15:32:43.895Z,89.44
2023-03-12T15:33:43.868Z,88.82
2023-03-12T15:34:43.801Z,89.03
2023-03-12T15:35:43.964Z,89.69
2023-03-12T15:36:43.794Z,89.75
2023-03-12T15:37:43.856Z,89.07
2023-03-12T15:38:43.805Z,89.38
2023-03-12T15:39:43.827Z,89.69
2023-03-12T15:40:43.853Z,89.79
2023-03-12T15:41:43.724Z,89.79
2023-03-12T15:42:43.728Z,89.79
2023-03-12T15:43:43.738Z,89.79
2023-03-12T15:44:43.733Z,89.38
2023-03-12T15:45:44.153Z,89.38
2023-03-12T15:46:43.955Z,89.69
2023-03-12T15:47:43.678Z,89.79
2023-03-12T15:48:43.672Z,89.69
2023-03-12T15:49:43.652Z,89.58
2023-03-12T15:50:43.602Z,89.48
2023-03-12T15:51:43.599Z,89.48
2023-03-12T15:52:43.631Z,89.38
2023-03-12T15:53:43.608Z,89.38
2023-03-12T15:54:43.567Z,89.38
2023-03-12T15:55:43.523Z,88.96
2023-03-12T15:56:43.538Z,88.96
2023-03-12T15:57:43.538Z,89.28
2023-03-12T15:58:43.550Z,89.38
2023-03-12T15:59:43.504Z,89.48
2023-03-12T16:00:43.583Z,89.58
2023-03-12T16:01:43.488Z,89.62
2023-03-12T16:02:43.594Z,89.28
2023-03-12T16:03:43.438Z,89.42
2023-03-12T16:04:43.415Z,89.22
2023-03-12T16:05:43.455Z,89.22
2023-03-12T16:06:43.385Z,89.22
2023-03-12T16:07:43.447Z,89.32
2023-03-12T16:08:43.375Z,89.32
2023-03-12T16:09:43.375Z,89.32
2023-03-12T16:10:43.412Z,88.80
2023-03-12T16:11:43.335Z,88.70
2023-03-12T16:12:43.366Z,89.42
2023-03-12T16:13:43.304Z,89.42
2023-03-12T16:14:43.304Z,89.01
2023-03-12T16:15:43.456Z,89.56
2023-03-12T16:16:43.314Z,89.67
2023-03-12T16:17:43.247Z,89.87
2023-03-12T16:18:43.237Z,90.28
2023-03-12T16:19:43.291Z,90.49
2023-03-12T16:20:43.195Z,90.49
2023-03-12T16:21:43.221Z,89.67
2023-03-12T16:22:43.204Z,90.08
2023-03-12T16:23:43.200Z,89.36
2023-03-12T16:24:43.183Z,89.67
2023-03-12T16:25:43.111Z,90.08
2023-03-12T16:26:43.140Z,89.98
2023-03-12T16:27:43.144Z,90.08
2023-03-12T16:28:43.141Z,89.98
2023-03-12T16:29:43.087Z,90.22
2023-03-12T16:30:43.112Z,90.19
2023-03-12T16:31:43.064Z,90.22
2023-03-12T16:32:43.117Z,89.81
2023-03-12T16:33:43.011Z,89.81
2023-03-12T16:34:43.064Z,90.02
2023-03-12T16:35:43.059Z,89.92
2023-03-12T16:36:42.989Z,90.22
2023-03-12T16:37:43.004Z,90.53
2023-03-12T16:38:42.982Z,90.64
2023-03-12T16:39:42.936Z,90.74
2023-03-12T16:40:43.905Z,90.64
2023-03-12T16:41:42.937Z,90.74
2023-03-12T16:42:42.888Z,90.53
2023-03-12T16:43:42.905Z,90.33
2023-03-12T16:44:43.998Z,90.64
2023-03-12T16:45:42.959Z,90.64
2023-03-12T16:46:42.862Z,90.64
2023-03-12T16:47:42.860Z,90.02
2023-03-12T16:48:42.880Z,89.61
2023-03-12T16:49:42.826Z,89.71
2023-03-12T16:50:43.294Z,89.81
2023-03-12T16:51:42.784Z,89.81
2023-03-12T16:52:42.862Z,89.92
2023-03-12T16:53:42.796Z,89.71
2023-03-12T16:54:42.909Z,89.75
2023-03-12T16:55:42.770Z,90.06
2023-03-12T16:56:42.772Z,90.37
2023-03-12T16:57:42.725Z,90.26
2023-03-12T16:58:42.666Z,90.26
2023-03-12T16:59:42.696Z,90.26
2023-03-12T17:00:42.669Z,90.26
2023-03-12T17:01:42.804Z,90.16
2023-03-12T17:02:42.703Z,90.26
2023-03-12T17:03:42.758Z,90.06
2023-03-12T17:04:42.613Z,89.95
2023-03-12T17:05:42.613Z,90.16
2023-03-12T17:06:42.623Z,90.26
2023-03-12T17:07:42.586Z,90.68
2023-03-12T17:08:42.592Z,90.99
2023-03-12T17:09:42.534Z,90.99
2023-03-12T17:10:42.557Z,91.13
2023-03-12T17:11:42.491Z,91.30
2023-03-12T17:12:42.585Z,90.93
2023-03-12T17:13:42.481Z,90.93
2023-03-12T17:14:42.502Z,90.93
2023-03-12T17:15:42.496Z,90.68
2023-03-12T17:16:42.491Z,90.62
2023-03-12T17:17:42.450Z,90.83
2023-03-12T17:18:42.462Z,90.62
2023-03-12T17:19:42.419Z,90.62
2023-03-12T17:20:42.367Z,90.58
2023-03-12T17:21:42.474Z,90.52
2023-03-12T17:22:42.338Z,90.20
2023-03-12T17:23:42.391Z,90.31
2023-03-12T17:24:42.357Z,90.31
2023-03-12T17:25:42.357Z,90.10
2023-03-12T17:26:42.294Z,89.79
2023-03-12T17:27:42.283Z,89.89
2023-03-12T17:28:42.296Z,89.89
2023-03-12T17:29:42.310Z,90.00
2023-03-12T17:30:42.330Z,90.31
2023-03-12T17:31:42.234Z,90.10
2023-03-12T17:32:42.289Z,90.20
2023-03-12T17:33:42.258Z,90.35
